KSFZ/SFZ METAR and TAF weather

Enter ICAO airport designator
Station Type Date Time Source
KSFZ METAR 2019/04/23 03:56 UTC NOAA

KSFZ 230356Z AUTO 02010KT 10SM RA OVC006 12/12 A2992 RMK AO2 CIG 004V008 SLP079 P0017 T01170117


Station Type Date Time Source
KSFZ Decoded METAR 2019/04/23 03:56 UTC NOAA

Pawtucket, North Central State Airport, RI, United States (KSFZ) 41-55N 071-30W
Apr 22, 2019 - 11:56 PM EDT / 2019.04.23 0356 UTC
Wind: from the NNE (020 degrees) at 12 MPH (10 KT):0
Visibility: 10 mile(s):0
Sky conditions: overcast
Weather: rain
Precipitation last hour: 0.17 inches
Temperature: 53.1 F (11.7 C)
Dew Point: 53.1 F (11.7 C)
Relative Humidity: 100%
Pressure (altimeter): 29.92 in. Hg (1013 hPa)
ob: KSFZ 230356Z AUTO 02010KT 10SM RA OVC006 12/12 A2992 RMK AO2 CIG 004V008 SLP079 P0017 T01170117
cycle: 4

Station Type Date Time Source
KSFZ TAF UTC NOAA

Error!

Example: see airport list